Time;durP1;ratioP1;P1;durP2;ratioP2;P2;SDS_P1;SDS_P2;PMS_P1;PMS_P2;Temp;Humidity;BMP_temperature;BMP_pressure;BME280_temperature;BME280_humidity;BME280_pressure;Samples;Min_cycle;Max_cycle;Signal;HPM_P1;HPM_P2
2021/05/07 00:00:11;;;;;;;4.47;3.15;;;14.90;99.90;15.00;99227.00;;;;343912;28;91024;-88
2021/05/07 00:00:23;;;;;;;4.60;3.15;;;14.90;99.90;15.00;99222.00;;;;342875;28;83797;-87
2021/05/07 00:00:34;;;;;;;4.57;3.05;;;14.90;99.90;15.00;99220.00;;;;343574;28;91771;-88
2021/05/07 00:00:45;;;;;;;4.05;2.65;;;14.90;99.90;14.90;99220.00;;;;344220;28;83690;-88
2021/05/07 00:00:58;;;;;;;3.60;2.38;;;14.90;99.90;14.90;99213.00;;;;341138;28;91599;-87
2021/05/07 00:01:10;;;;;;;3.70;2.20;;;14.90;99.90;14.90;99219.00;;;;344116;28;83507;-88
2021/05/07 00:01:22;;;;;;;5.32;2.85;;;14.80;99.90;14.90;99218.00;;;;343945;28;89849;-87
2021/05/07 00:01:33;;;;;;;6.50;3.15;;;14.80;99.90;14.90;99219.00;;;;344351;28;83646;-86
2021/05/07 00:01:44;;;;;;;6.20;3.13;;;14.80;99.90;15.00;99212.00;;;;345068;28;90924;-87
2021/05/07 00:01:56;;;;;;;4.05;2.70;;;14.90;99.90;14.90;99222.00;;;;343067;28;83330;-87
2021/05/07 00:02:07;;;;;;;4.57;2.72;;;14.90;99.90;15.00;99223.00;;;;345046;28;91321;-87
2021/05/07 00:02:19;;;;;;;5.55;3.10;;;14.90;99.90;15.00;99218.00;;;;344006;28;83411;-87
2021/05/07 00:02:31;;;;;;;5.75;3.28;;;14.90;99.90;15.00;99225.00;;;;342178;28;89102;-88
2021/05/07 00:02:42;;;;;;;4.10;2.55;;;14.90;99.90;15.10;99216.00;;;;344746;28;83817;-88
2021/05/07 00:02:54;;;;;;;3.53;2.13;;;14.90;99.90;15.10;99216.00;;;;343412;28;94830;-87
2021/05/07 00:03:06;;;;;;;3.95;2.10;;;14.90;99.90;15.20;99226.00;;;;344072;28;83636;-87
2021/05/07 00:03:17;;;;;;;4.78;2.53;;;14.90;99.90;15.20;99225.00;;;;343769;28;89867;-87
2021/05/07 00:03:29;;;;;;;5.07;2.85;;;14.90;99.90;15.20;99228.00;;;;342947;28;83341;-88
2021/05/07 00:03:40;;;;;;;5.03;3.15;;;14.90;99.90;15.20;99227.00;;;;342238;28;90094;-88
2021/05/07 00:03:52;;;;;;;4.90;3.17;;;15.00;99.90;15.20;99228.00;;;;344073;28;84179;-88
2021/05/07 00:04:04;;;;;;;3.67;2.70;;;15.00;99.90;15.20;99222.00;;;;342626;28;89780;-89
2021/05/07 00:04:17;;;;;;;4.40;3.10;;;15.00;99.90;15.20;99222.00;;;;344269;28;83611;-88
2021/05/07 00:04:28;;;;;;;5.55;3.70;;;15.00;99.90;15.10;99223.00;;;;343450;28;90957;-87
2021/05/07 00:04:39;;;;;;;4.95;3.50;;;15.00;99.90;14.80;99228.00;;;;345708;28;83267;-88
2021/05/07 00:04:51;;;;;;;4.45;3.08;;;14.90;99.90;14.80;99231.00;;;;343607;28;91596;-88
2021/05/07 00:05:04;;;;;;;4.40;2.80;;;15.00;99.90;14.70;99224.00;;;;344337;28;83280;-88
2021/05/07 00:05:15;;;;;;;4.90;3.10;;;15.00;99.90;14.70;99224.00;;;;342635;28;89943;-87
2021/05/07 00:05:26;;;;;;;4.55;3.08;;;14.90;99.90;14.80;99227.00;;;;345426;28;83500;-87
2021/05/07 00:05:38;;;;;;;4.18;2.83;;;14.90;99.90;14.90;99220.00;;;;341979;28;90759;-87
2021/05/07 00:05:56;;;;;;;3.67;2.70;;;14.90;99.90;14.90;99228.00;;;;344846;28;85225;-87
2021/05/07 00:06:08;;;;;;;5.07;2.88;;;14.90;99.90;14.90;99215.00;;;;340787;28;89699;-88
2021/05/07 00:06:19;;;;;;;5.25;2.70;;;14.90;99.90;15.00;99220.00;;;;344401;28;83368;-87
2021/05/07 00:06:31;;;;;;;4.35;2.75;;;14.90;99.90;14.90;99223.00;;;;344094;28;89135;-87
2021/05/07 00:06:42;;;;;;;3.20;2.80;;;14.90;99.90;15.00;99221.00;;;;344060;28;83518;-87
2021/05/07 00:06:54;;;;;;;3.22;2.63;;;14.90;99.90;14.90;99212.00;;;;342515;28;89401;-87
2021/05/07 00:07:05;;;;;;;3.25;2.38;;;14.90;99.90;14.90;99228.00;;;;341614;28;83507;-87
2021/05/07 00:07:16;;;;;;;3.60;2.47;;;14.90;99.90;14.90;99221.00;;;;344072;28;88675;-87
2021/05/07 00:07:28;;;;;;;4.07;2.58;;;14.90;99.90;15.00;99219.00;;;;342574;28;83940;-87
2021/05/07 00:07:39;;;;;;;5.60;2.60;;;14.90;99.90;15.10;99214.00;;;;342620;28;88288;-87
2021/05/07 00:07:51;;;;;;;5.38;2.90;;;14.90;99.90;15.00;99215.00;;;;344435;28;83308;-88
2021/05/07 00:08:02;;;;;;;4.55;3.17;;;14.90;99.90;15.10;99216.00;;;;342413;28;91020;-88
2021/05/07 00:08:13;;;;;;;4.13;3.15;;;14.90;99.90;15.20;99224.00;;;;342799;28;84568;-88
2021/05/07 00:08:27;;;;;;;4.22;2.78;;;14.90;99.90;15.10;99215.00;;;;342532;28;90822;-87
2021/05/07 00:08:40;;;;;;;4.05;2.30;;;14.90;99.90;15.20;99213.00;;;;343747;28;83742;-87
2021/05/07 00:08:51;;;;;;;3.72;1.92;;;14.90;99.90;15.20;99220.00;;;;342436;28;90692;-87
2021/05/07 00:09:06;;;;;;;3.53;2.10;;;14.90;99.90;15.20;99219.00;;;;344748;28;83254;-87
2021/05/07 00:09:17;;;;;;;2.95;2.17;;;14.90;99.90;15.30;99216.00;;;;346379;28;90591;-87
2021/05/07 00:09:29;;;;;;;2.72;1.85;;;15.00;99.90;15.30;99220.00;;;;343944;28;84305;-87
2021/05/07 00:09:41;;;;;;;3.25;2.00;;;15.00;99.90;15.30;99213.00;;;;345288;28;89073;-87
2021/05/07 00:09:52;;;;;;;3.47;2.08;;;15.00;99.90;15.20;99217.00;;;;342816;28;83463;-87
2021/05/07 00:10:04;;;;;;;3.90;2.13;;;15.00;99.90;15.20;99211.00;;;;343867;28;91364;-87
2021/05/07 00:10:15;;;;;;;4.07;2.10;;;15.00;99.90;15.10;99216.00;;;;340835;28;82549;-87
2021/05/07 00:10:27;;;;;;;3.50;2.05;;;15.00;99.90;15.10;99209.00;;;;343464;28;91080;-87
2021/05/07 00:10:39;;;;;;;4.20;2.42;;;15.00;99.90;15.00;99217.00;;;;344189;28;83324;-88
2021/05/07 00:10:50;;;;;;;4.22;2.60;;;15.00;99.90;15.10;99213.00;;;;341132;28;90694;-88
2021/05/07 00:11:08;;;;;;;4.15;2.45;;;15.00;99.90;15.10;99205.00;;;;341393;28;83609;-88
2021/05/07 00:11:19;;;;;;;5.30;2.40;;;15.00;99.90;15.20;99215.00;;;;343987;28;88904;-87
2021/05/07 00:11:33;;;;;;;6.30;2.50;;;15.00;99.90;15.20;99214.00;;;;342744;28;83471;-87
2021/05/07 00:11:45;;;;;;;4.82;2.58;;;15.00;99.90;15.20;99221.00;;;;341317;28;89954;-87
2021/05/07 00:11:58;;;;;;;4.47;2.63;;;15.00;99.90;15.20;99212.00;;;;344451;28;82347;-87
2021/05/07 00:12:09;;;;;;;4.05;2.65;;;15.00;99.90;15.10;99216.00;;;;343527;28;89974;-88
2021/05/07 00:12:21;;;;;;;3.70;2.33;;;15.00;99.90;15.20;99218.00;;;;345458;28;83795;-88
2021/05/07 00:12:33;;;;;;;3.40;2.20;;;15.00;99.90;15.10;99221.00;;;;343695;28;89057;-88
2021/05/07 00:12:45;;;;;;;3.00;2.05;;;15.00;99.90;15.20;99213.00;;;;342835;28;83475;-87
2021/05/07 00:12:57;;;;;;;2.97;2.20;;;15.00;99.90;15.10;99213.00;;;;343511;28;91543;-87
2021/05/07 00:13:08;;;;;;;3.33;2.38;;;15.00;99.90;15.10;99218.00;;;;344422;28;83407;-87
2021/05/07 00:13:20;;;;;;;3.80;2.33;;;15.00;99.90;15.10;99221.00;;;;342602;28;90653;-87
2021/05/07 00:13:31;;;;;;;4.57;2.47;;;15.00;99.90;15.10;99222.00;;;;344174;28;83541;-88
2021/05/07 00:13:44;;;;;;;4.20;2.40;;;15.00;99.90;15.20;99213.00;;;;342551;28;91824;-87
2021/05/07 00:13:55;;;;;;;4.60;2.40;;;15.00;99.90;15.20;99224.00;;;;344087;28;83820;-87
2021/05/07 00:14:07;;;;;;;4.57;2.53;;;15.00;99.90;15.10;99218.00;;;;344004;28;88026;-87
2021/05/07 00:14:19;;;;;;;4.28;2.55;;;15.00;99.90;15.10;99217.00;;;;345354;28;83457;-87
2021/05/07 00:14:30;;;;;;;3.83;2.47;;;15.00;99.90;15.10;99212.00;;;;343897;28;90147;-88
2021/05/07 00:14:41;;;;;;;3.58;2.22;;;15.00;99.90;15.10;99217.00;;;;342454;28;83468;-87
2021/05/07 00:14:53;;;;;;;4.22;2.38;;;15.00;99.90;15.10;99214.00;;;;343528;28;90691;-87
2021/05/07 00:15:05;;;;;;;4.65;2.55;;;15.00;99.90;15.10;99216.00;;;;344165;28;84576;-87
2021/05/07 00:15:16;;;;;;;4.55;2.72;;;15.00;99.90;15.20;99225.00;;;;342348;28;91259;-87
2021/05/07 00:15:27;;;;;;;3.80;2.60;;;15.00;99.90;15.30;99225.00;;;;343954;28;83744;-87
2021/05/07 00:15:39;;;;;;;3.80;2.40;;;15.00;99.90;15.30;99213.00;;;;341130;28;89878;-88
2021/05/07 00:15:51;;;;;;;4.53;2.45;;;15.00;99.90;15.20;99223.00;;;;343027;28;83378;-88
2021/05/07 00:16:03;;;;;;;5.05;2.35;;;15.00;99.90;15.20;99230.00;;;;346221;28;88674;-87
2021/05/07 00:16:15;;;;;;;4.80;2.35;;;15.00;99.90;15.20;99223.00;;;;344034;28;83646;-87
2021/05/07 00:16:27;;;;;;;4.72;2.25;;;15.00;99.90;15.20;99225.00;;;;345414;28;89351;-87
2021/05/07 00:16:39;;;;;;;4.32;2.25;;;15.10;99.90;15.20;99217.00;;;;344224;28;83561;-88
2021/05/07 00:16:53;;;;;;;3.88;2.15;;;15.00;99.90;15.20;99219.00;;;;343618;28;89808;-88
2021/05/07 00:17:05;;;;;;;3.38;2.13;;;15.10;99.90;15.30;99220.00;;;;344369;28;83278;-87
2021/05/07 00:17:17;;;;;;;3.67;2.53;;;15.10;99.90;15.20;99216.00;;;;344009;28;89602;-87
2021/05/07 00:17:29;;;;;;;3.85;3.08;;;15.00;99.90;15.20;99220.00;;;;345695;28;83145;-87
2021/05/07 00:17:40;;;;;;;4.75;3.40;;;15.10;99.90;15.20;99219.00;;;;340593;28;90771;-88
2021/05/07 00:17:52;;;;;;;4.18;2.80;;;15.10;99.90;15.00;99219.00;;;;344103;28;84629;-87
2021/05/07 00:18:04;;;;;;;4.05;2.42;;;15.10;99.90;15.10;99215.00;;;;342948;28;89425;-88
2021/05/07 00:18:16;;;;;;;4.35;2.38;;;15.00;99.90;15.20;99224.00;;;;342880;28;82147;-88
2021/05/07 00:18:27;;;;;;;4.07;2.55;;;15.10;99.90;15.20;99212.00;;;;342381;28;91185;-87
2021/05/07 00:18:39;;;;;;;3.63;2.50;;;15.10;99.90;15.20;99212.00;;;;344277;28;82601;-88
2021/05/07 00:18:52;;;;;;;3.70;2.45;;;15.10;99.90;15.20;99220.00;;;;343621;28;90300;-87
2021/05/07 00:19:06;;;;;;;5.03;2.38;;;15.10;99.90;15.20;99214.00;;;;343820;28;83548;-87
2021/05/07 00:19:23;;;;;;;4.82;2.35;;;15.10;99.90;15.20;99212.00;;;;344047;28;89570;-87
2021/05/07 00:19:35;;;;;;;3.35;2.13;;;15.10;99.90;15.20;99223.00;;;;344198;28;83395;-87
2021/05/07 00:19:46;;;;;;;3.33;2.08;;;15.10;99.90;15.20;99225.00;;;;345023;28;91034;-87
2021/05/07 00:19:58;;;;;;;3.33;2.00;;;15.10;99.90;15.10;99214.00;;;;342669;28;83268;-87
2021/05/07 00:20:11;;;;;;;3.30;2.03;;;15.10;99.90;15.10;99221.00;;;;343937;28;89857;-87
2021/05/07 00:20:22;;;;;;;3.33;2.22;;;15.10;99.90;15.10;99207.00;;;;342776;28;82512;-87
2021/05/07 00:20:34;;;;;;;4.13;2.40;;;15.00;99.90;15.00;99222.00;;;;342556;28;91123;-88
2021/05/07 00:20:46;;;;;;;3.72;2.22;;;15.00;99.90;15.00;99218.00;;;;342904;28;84658;-88
2021/05/07 00:20:57;;;;;;;3.72;2.10;;;15.00;99.90;15.10;99220.00;;;;340613;28;90375;-88
2021/05/07 00:21:09;;;;;;;7.30;2.50;;;15.00;99.90;15.10;99218.00;;;;344241;28;83510;-88
2021/05/07 00:21:21;;;;;;;7.18;2.47;;;15.00;99.90;15.10;99216.00;;;;343682;28;91602;-87
2021/05/07 00:21:34;;;;;;;6.45;2.17;;;15.00;99.90;15.10;99218.00;;;;343826;28;82574;-87
2021/05/07 00:21:45;;;;;;;3.88;2.70;;;15.00;99.90;15.10;99220.00;;;;342430;28;89385;-87
2021/05/07 00:21:57;;;;;;;4.72;2.80;;;15.00;99.90;15.20;99222.00;;;;344271;28;82387;-88
2021/05/07 00:22:08;;;;;;;4.22;2.53;;;15.00;99.90;15.10;99212.00;;;;343900;28;89797;-89
2021/05/07 00:22:20;;;;;;;3.85;2.20;;;15.00;99.90;15.20;99222.00;;;;341422;28;82919;-87
2021/05/07 00:22:33;;;;;;;4.30;2.60;;;15.00;99.90;15.10;99219.00;;;;343725;28;91378;-86
2021/05/07 00:23:04;;;;;;;3.78;2.33;;;15.00;99.90;15.10;99221.00;;;;342992;28;83431;-87
2021/05/07 00:23:15;;;;;;;4.75;2.92;;;15.00;99.90;15.10;99223.00;;;;341218;28;89122;-88
2021/05/07 00:23:27;;;;;;;4.90;3.05;;;15.00;99.90;15.10;99216.00;;;;341646;28;83300;-86
2021/05/07 00:23:38;;;;;;;4.03;2.72;;;15.00;99.90;15.00;99215.00;;;;341757;28;88364;-90
2021/05/07 00:23:52;;;;;;;3.67;2.50;;;15.00;99.90;15.00;99217.00;;;;342674;28;83587;-88
2021/05/07 00:24:04;;;;;;;4.07;2.53;;;15.00;99.90;15.00;99220.00;;;;345257;28;89018;-87
2021/05/07 00:24:15;;;;;;;5.07;2.65;;;15.00;99.90;15.00;99221.00;;;;342700;28;82572;-88
2021/05/07 00:24:27;;;;;;;5.50;2.60;;;15.00;99.90;15.10;99216.00;;;;343800;28;91217;-86
2021/05/07 00:24:38;;;;;;;4.85;2.50;;;15.00;99.90;15.10;99214.00;;;;342012;28;84885;-87
2021/05/07 00:24:50;;;;;;;3.72;2.38;;;15.00;99.90;15.20;99216.00;;;;342592;28;91323;-87
2021/05/07 00:25:02;;;;;;;3.92;2.28;;;15.00;99.90;15.10;99214.00;;;;342888;28;83534;-87
2021/05/07 00:25:13;;;;;;;4.65;2.20;;;15.00;99.90;15.20;99225.00;;;;343648;28;91960;-87
2021/05/07 00:25:24;;;;;;;4.72;2.42;;;15.00;99.90;15.20;99216.00;;;;342289;28;83523;-87
2021/05/07 00:25:36;;;;;;;3.30;2.20;;;15.00;99.90;15.20;99214.00;;;;343946;28;89436;-87
2021/05/07 00:25:49;;;;;;;3.03;2.00;;;15.00;99.90;15.20;99212.00;;;;343993;28;83905;-87
2021/05/07 00:26:01;;;;;;;3.55;2.00;;;15.00;99.90;15.30;99216.00;;;;344072;28;88511;-88
2021/05/07 00:26:13;;;;;;;3.72;2.20;;;15.00;99.90;15.20;99217.00;;;;345067;28;83562;-87
2021/05/07 00:26:24;;;;;;;3.00;2.10;;;15.00;99.90;15.10;99218.00;;;;342661;28;88760;-87
2021/05/07 00:26:36;;;;;;;3.72;2.33;;;15.00;99.90;15.10;99211.00;;;;342520;28;83738;-88
2021/05/07 00:26:47;;;;;;;3.95;2.55;;;15.00;99.90;15.20;99220.00;;;;341855;28;89127;-87
2021/05/07 00:27:00;;;;;;;3.63;2.65;;;15.00;99.90;15.10;99222.00;;;;342750;28;83799;-88
2021/05/07 00:27:11;;;;;;;3.28;2.25;;;15.00;99.90;15.10;99214.00;;;;343711;28;90664;-87
2021/05/07 00:27:23;;;;;;;3.92;1.90;;;15.00;99.90;15.10;99210.00;;;;341393;28;83512;-88
2021/05/07 00:27:35;;;;;;;3.63;1.98;;;15.00;99.90;15.00;99217.00;;;;342129;28;89930;-87
2021/05/07 00:27:47;;;;;;;3.92;1.98;;;15.00;99.90;15.20;99223.00;;;;340298;28;83488;-87
2021/05/07 00:28:09;;;;;;;3.35;1.90;;;15.00;99.90;15.10;99212.00;;;;342652;28;89358;-86
2021/05/07 00:28:20;;;;;;;4.00;2.40;;;15.00;99.90;15.10;99220.00;;;;340288;28;82473;-87
2021/05/07 00:28:34;;;;;;;4.22;2.50;;;15.00;99.90;15.30;99217.00;;;;341276;28;89836;-88
2021/05/07 00:28:46;;;;;;;4.60;2.20;;;15.00;99.90;15.20;99218.00;;;;338849;28;83492;-87
2021/05/07 00:28:58;;;;;;;4.47;2.17;;;15.00;99.90;15.10;99213.00;;;;339521;28;88688;-87
2021/05/07 00:29:09;;;;;;;4.25;2.15;;;15.00;99.90;14.90;99214.00;;;;342922;28;83397;-87
2021/05/07 00:29:21;;;;;;;3.63;2.10;;;15.00;99.90;14.70;99222.00;;;;343923;28;89216;-87
2021/05/07 00:29:32;;;;;;;3.92;1.95;;;15.00;99.90;14.60;99218.00;;;;343744;28;83516;-87
2021/05/07 00:29:46;;;;;;;4.32;2.10;;;15.00;99.90;14.60;99214.00;;;;344822;28;88875;-87
2021/05/07 00:29:57;;;;;;;4.50;2.35;;;14.90;99.90;14.80;99211.00;;;;344145;28;83350;-87
2021/05/07 00:30:09;;;;;;;4.88;2.95;;;14.90;99.90;14.90;99210.00;;;;343108;28;91389;-88
2021/05/07 00:30:21;;;;;;;4.40;2.80;;;14.90;99.90;15.00;99214.00;;;;345471;28;83645;-87
2021/05/07 00:30:33;;;;;;;4.32;2.47;;;14.90;99.90;15.00;99213.00;;;;343984;28;89494;-87
2021/05/07 00:30:44;;;;;;;4.25;2.08;;;14.90;99.90;15.00;99207.00;;;;345317;28;83693;-87
2021/05/07 00:30:56;;;;;;;4.43;2.17;;;14.90;99.90;15.10;99207.00;;;;343756;28;91242;-87
2021/05/07 00:31:07;;;;;;;4.68;2.30;;;14.90;99.90;14.90;99213.00;;;;347069;28;83657;-86
2021/05/07 00:31:19;;;;;;;4.35;2.50;;;14.90;99.90;14.90;99212.00;;;;342273;28;91729;-87
2021/05/07 00:31:30;;;;;;;5.00;2.75;;;14.90;99.90;14.90;99206.00;;;;344088;28;83809;-87
2021/05/07 00:31:42;;;;;;;4.80;2.72;;;14.90;99.90;14.70;99212.00;;;;340823;28;91044;-88
2021/05/07 00:31:53;;;;;;;5.35;2.10;;;14.90;99.90;14.80;99209.00;;;;344215;28;85121;-87
2021/05/07 00:32:05;;;;;;;4.95;2.15;;;14.90;99.90;14.80;99211.00;;;;342214;28;88539;-86
2021/05/07 00:32:17;;;;;;;3.75;2.22;;;14.90;99.90;14.80;99213.00;;;;344082;28;83964;-87
2021/05/07 00:32:29;;;;;;;3.63;2.38;;;14.90;99.90;14.80;99205.00;;;;341250;28;89564;-87
2021/05/07 00:32:41;;;;;;;4.63;2.63;;;14.80;99.90;14.60;99209.00;;;;343838;28;82502;-87
2021/05/07 00:32:53;;;;;;;4.88;2.55;;;14.80;99.90;14.60;99202.00;;;;340764;28;89034;-87
2021/05/07 00:33:05;;;;;;;5.03;2.38;;;14.80;99.90;14.70;99200.00;;;;343932;28;84173;-87
2021/05/07 00:33:17;;;;;;;6.13;2.72;;;14.80;99.90;14.70;99212.00;;;;341274;28;90346;-87
2021/05/07 00:33:28;;;;;;;5.47;2.78;;;14.80;99.90;14.80;99200.00;;;;342800;28;84783;-88
2021/05/07 00:33:39;;;;;;;4.38;2.60;;;14.80;99.90;14.90;99206.00;;;;344915;28;89350;-87
2021/05/07 00:33:51;;;;;;;4.45;2.17;;;14.80;99.90;15.00;99209.00;;;;345529;28;84980;-86
2021/05/07 00:34:03;;;;;;;4.20;1.98;;;14.80;99.90;15.00;99202.00;;;;342572;28;91751;-86
2021/05/07 00:34:14;;;;;;;4.38;2.22;;;14.80;99.90;15.10;99206.00;;;;344130;28;83983;-87
2021/05/07 00:34:26;;;;;;;3.70;2.17;;;14.80;99.90;15.00;99204.00;;;;341069;28;90807;-87
2021/05/07 00:34:37;;;;;;;4.05;2.60;;;14.80;99.90;14.80;99208.00;;;;342852;28;85184;-87
2021/05/07 00:34:48;;;;;;;4.55;2.65;;;14.80;99.90;14.90;99204.00;;;;341141;28;89031;-87
2021/05/07 00:35:00;;;;;;;4.88;2.83;;;14.80;99.90;15.00;99198.00;;;;344073;28;84001;-87
2021/05/07 00:35:11;;;;;;;4.38;2.63;;;14.80;99.90;15.00;99198.00;;;;339774;28;93051;-87
2021/05/07 00:35:22;;;;;;;4.35;2.67;;;14.80;99.90;14.90;99202.00;;;;341515;28;84472;-87
2021/05/07 00:35:34;;;;;;;4.68;2.92;;;14.80;99.90;14.90;99199.00;;;;342463;28;90092;-87
2021/05/07 00:35:45;;;;;;;4.82;3.00;;;14.80;99.90;14.90;99194.00;;;;341361;28;83483;-88
2021/05/07 00:35:57;;;;;;;4.18;2.67;;;14.70;99.90;14.90;99203.00;;;;341371;28;88034;-87
2021/05/07 00:36:08;;;;;;;4.00;2.50;;;14.80;99.90;15.00;99200.00;;;;342772;28;83397;-89
2021/05/07 00:36:20;;;;;;;5.20;2.63;;;14.80;99.90;15.00;99197.00;;;;343701;28;89734;-87
2021/05/07 00:36:32;;;;;;;4.85;2.38;;;14.80;99.90;15.00;99192.00;;;;344318;28;83426;-87
2021/05/07 00:36:44;;;;;;;4.25;2.47;;;14.80;99.90;15.00;99201.00;;;;343640;28;90545;-89
2021/05/07 00:36:55;;;;;;;3.55;2.20;;;14.80;99.90;15.00;99204.00;;;;342780;28;83481;-88
2021/05/07 00:37:06;;;;;;;3.75;2.30;;;14.80;99.90;15.00;99192.00;;;;343974;28;89987;-87
2021/05/07 00:37:18;;;;;;;3.67;2.50;;;14.80;99.90;15.00;99205.00;;;;341019;28;83524;-87
2021/05/07 00:37:29;;;;;;;3.53;2.33;;;14.80;99.90;15.00;99191.00;;;;341257;28;89354;-88
2021/05/07 00:37:41;;;;;;;3.80;2.34;;;14.80;99.90;15.10;99193.00;;;;341579;28;83617;-87
2021/05/07 00:37:52;;;;;;;4.57;2.80;;;14.80;99.90;15.00;99197.00;;;;341205;28;88146;-87
2021/05/07 00:38:04;;;;;;;4.68;2.85;;;14.80;99.90;15.00;99199.00;;;;343036;28;83364;-87
2021/05/07 00:38:16;;;;;;;4.75;2.83;;;14.80;99.90;15.00;99197.00;;;;342595;28;88080;-87
2021/05/07 00:38:27;;;;;;;3.88;2.55;;;14.80;99.90;15.10;99198.00;;;;344138;28;84876;-87
2021/05/07 00:38:39;;;;;;;3.38;2.22;;;14.80;99.90;15.00;99193.00;;;;343361;28;89629;-88
2021/05/07 00:38:50;;;;;;;3.05;2.05;;;14.80;99.90;15.10;99186.00;;;;342883;28;82547;-87
2021/05/07 00:39:03;;;;;;;3.83;2.30;;;14.80;99.90;15.20;99200.00;;;;341293;28;88037;-87
2021/05/07 00:39:14;;;;;;;4.75;2.65;;;14.80;99.90;15.10;99183.00;;;;342888;28;83611;-87
2021/05/07 00:39:25;;;;;;;5.03;2.80;;;14.80;99.90;15.00;99195.00;;;;341184;28;89696;-89
2021/05/07 00:39:37;;;;;;;5.30;2.75;;;14.80;99.90;15.00;99194.00;;;;343091;28;82638;-87
2021/05/07 00:39:48;;;;;;;4.53;2.65;;;14.80;99.90;14.90;99190.00;;;;341341;28;89028;-87
2021/05/07 00:40:00;;;;;;;4.78;2.92;;;14.80;99.90;15.00;99193.00;;;;344113;28;83177;-88
2021/05/07 00:40:12;;;;;;;4.72;2.94;;;14.80;99.90;14.90;99193.00;;;;342624;28;89370;-87
2021/05/07 00:40:23;;;;;;;3.72;2.50;;;14.80;99.90;15.00;99192.00;;;;342660;28;83701;-87
2021/05/07 00:40:35;;;;;;;2.90;2.17;;;14.80;99.90;15.00;99187.00;;;;343625;28;87278;-87
2021/05/07 00:40:47;;;;;;;3.03;2.10;;;14.80;99.90;14.90;99187.00;;;;344253;28;83373;-87
2021/05/07 00:40:58;;;;;;;3.78;2.38;;;14.80;99.90;15.00;99192.00;;;;344790;28;92195;-87
2021/05/07 00:41:10;;;;;;;5.03;2.78;;;14.80;99.90;15.00;99196.00;;;;343013;28;83200;-88
2021/05/07 00:41:21;;;;;;;4.18;2.55;;;14.80;99.90;15.10;99190.00;;;;344022;28;89624;-88
2021/05/07 00:41:32;;;;;;;3.50;2.17;;;14.80;99.90;15.10;99185.00;;;;342635;28;83486;-88
2021/05/07 00:41:44;;;;;;;4.55;3.25;;;14.80;99.90;15.10;99192.00;;;;342690;28;88669;-87
2021/05/07 00:42:01;;;;;;;5.05;3.50;;;14.80;99.90;15.10;99183.00;;;;341603;28;83419;-87
2021/05/07 00:42:13;;;;;;;4.43;2.70;;;14.80;99.90;15.10;99187.00;;;;343622;28;89437;-87
2021/05/07 00:42:25;;;;;;;4.45;2.83;;;14.80;99.90;15.10;99189.00;;;;342795;28;83463;-87
2021/05/07 00:42:36;;;;;;;4.80;2.95;;;14.80;99.90;15.00;99192.00;;;;341776;28;89024;-87
2021/05/07 00:42:48;;;;;;;4.43;2.80;;;14.80;99.90;15.00;99188.00;;;;342925;28;83394;-87
2021/05/07 00:42:59;;;;;;;4.97;2.33;;;14.80;99.90;14.90;99182.00;;;;344908;28;90660;-87
2021/05/07 00:43:11;;;;;;;5.03;2.10;;;14.90;99.90;15.00;99183.00;;;;342658;28;83739;-87
2021/05/07 00:43:22;;;;;;;4.93;2.03;;;14.80;99.90;14.90;99189.00;;;;343991;28;89454;-87
2021/05/07 00:43:34;;;;;;;4.50;2.58;;;14.80;99.90;15.00;99184.00;;;;341588;28;82545;-87
2021/05/07 00:43:45;;;;;;;3.95;2.78;;;14.80;99.90;14.90;99190.00;;;;344023;28;88332;-87
2021/05/07 00:43:57;;;;;;;3.97;2.92;;;14.90;99.90;14.90;99188.00;;;;341585;28;83349;-87
2021/05/07 00:44:08;;;;;;;4.30;2.67;;;14.80;99.90;15.00;99189.00;;;;342451;28;89826;-88
2021/05/07 00:44:20;;;;;;;5.65;2.88;;;14.80;99.90;15.10;99189.00;;;;342982;28;83451;-89
2021/05/07 00:44:32;;;;;;;5.82;2.80;;;14.80;99.90;15.10;99179.00;;;;341220;28;89703;-88
2021/05/07 00:44:44;;;;;;;4.57;2.80;;;14.80;99.90;15.00;99184.00;;;;341519;28;83477;-87
2021/05/07 00:44:58;;;;;;;5.47;2.78;;;14.80;99.90;15.10;99188.00;;;;342501;28;90230;-87
2021/05/07 00:45:11;;;;;;;4.80;2.53;;;14.80;99.90;15.10;99190.00;;;;342297;28;82622;-88
2021/05/07 00:45:23;;;;;;;4.50;2.83;;;14.80;99.90;14.90;99184.00;;;;343663;28;90934;-88
2021/05/07 00:45:35;;;;;;;5.07;2.70;;;14.80;99.90;15.00;99182.00;;;;345044;28;82609;-87
2021/05/07 00:45:47;;;;;;;6.20;2.30;;;14.80;99.90;15.00;99187.00;;;;342649;28;89405;-87
2021/05/07 00:45:58;;;;;;;6.65;2.35;;;14.80;99.90;15.00;99190.00;;;;345429;28;83437;-88
2021/05/07 00:46:10;;;;;;;5.55;2.83;;;14.80;99.90;15.10;99186.00;;;;342617;28;87953;-87
2021/05/07 00:46:22;;;;;;;4.25;2.88;;;14.80;99.90;14.90;99197.00;;;;342975;28;83362;-87
2021/05/07 00:46:34;;;;;;;3.67;2.60;;;14.80;99.90;14.80;99190.00;;;;343647;28;90942;-87
2021/05/07 00:46:45;;;;;;;3.70;2.58;;;14.80;99.90;14.90;99187.00;;;;346857;28;83436;-86
2021/05/07 00:47:03;;;;;;;3.13;2.33;;;14.80;99.90;14.90;99187.00;;;;343880;28;88590;-87
2021/05/07 00:47:16;;;;;;;2.90;2.03;;;14.80;99.90;14.90;99181.00;;;;346958;27;83550;-87
2021/05/07 00:47:28;;;;;;;3.10;2.08;;;14.80;99.90;15.00;99188.00;;;;343887;28;89846;-87
2021/05/07 00:47:44;;;;;;;3.17;2.10;;;14.80;99.90;15.00;99186.00;;;;343487;28;83729;-87
2021/05/07 00:48:13;;;;;;;3.53;2.25;;;14.80;99.90;15.00;99184.00;;;;340732;28;87845;-87
2021/05/07 00:48:24;;;;;;;3.70;2.45;;;14.80;99.90;14.80;99190.00;;;;340205;28;83545;-87
2021/05/07 00:48:37;;;;;;;5.75;2.25;;;14.80;99.90;14.60;99182.00;;;;342582;28;88449;-87
2021/05/07 00:48:48;;;;;;;6.22;2.22;;;14.70;99.90;14.20;99179.00;;;;342648;28;83551;-87
2021/05/07 00:49:00;;;;;;;4.28;2.00;;;14.60;99.90;14.30;99182.00;;;;345246;28;89690;-88
2021/05/07 00:49:11;;;;;;;4.25;1.77;;;14.50;99.90;14.50;99189.00;;;;344378;28;82400;-87
2021/05/07 00:49:23;;;;;;;3.70;1.60;;;14.50;99.90;14.70;99182.00;;;;345333;28;89957;-87
2021/05/07 00:49:36;;;;;;;3.92;1.70;;;14.60;99.90;14.70;99180.00;;;;344200;28;83436;-87
2021/05/07 00:49:48;;;;;;;2.65;1.48;;;14.60;99.90;14.50;99180.00;;;;343491;28;88465;-87
2021/05/07 00:49:59;;;;;;;2.70;1.60;;;14.60;99.90;14.30;99191.00;;;;342164;28;83495;-87
2021/05/07 00:50:11;;;;;;;3.47;1.75;;;14.60;99.90;14.30;99177.00;;;;345036;28;90474;-87
2021/05/07 00:50:29;;;;;;;3.00;1.30;;;14.50;99.90;14.40;99185.00;;;;342735;28;83469;-88
2021/05/07 00:50:45;;;;;;;1.80;1.00;;;14.60;99.90;14.50;99180.00;;;;341701;28;89741;-87
2021/05/07 00:50:56;;;;;;;2.08;1.15;;;14.60;99.90;14.60;99186.00;;;;341410;28;83502;-87
2021/05/07 00:51:08;;;;;;;2.35;1.33;;;14.50;99.90;14.50;99182.00;;;;342205;28;89199;-87
2021/05/07 00:51:22;;;;;;;2.83;1.48;;;14.50;99.90;14.50;99184.00;;;;342669;28;83908;-88
2021/05/07 00:51:33;;;;;;;2.70;1.40;;;14.50;99.90;14.40;99181.00;;;;344913;28;89261;-87
2021/05/07 00:51:45;;;;;;;2.42;1.35;;;14.50;99.90;14.20;99182.00;;;;345512;28;82566;-87
2021/05/07 00:51:56;;;;;;;2.15;1.35;;;14.50;99.90;14.30;99179.00;;;;343893;28;92833;-87
2021/05/07 00:52:08;;;;;;;2.13;1.23;;;14.50;99.90;14.50;99185.00;;;;344949;28;83665;-87
2021/05/07 00:52:19;;;;;;;2.10;1.27;;;14.50;99.90;14.40;99176.00;;;;345005;28;88671;-87
2021/05/07 00:52:34;;;;;;;2.00;1.15;;;14.50;99.90;14.50;99171.00;;;;344324;28;83947;-87
2021/05/07 00:52:45;;;;;;;2.70;1.30;;;14.40;99.90;14.50;99183.00;;;;342648;28;89040;-87
2021/05/07 00:52:58;;;;;;;3.75;1.15;;;14.40;99.90;14.50;99180.00;;;;342916;28;84644;-87
2021/05/07 00:53:10;;;;;;;3.17;1.02;;;14.40;99.90;14.30;99179.00;;;;343683;28;90537;-88
2021/05/07 00:53:22;;;;;;;3.08;1.05;;;14.40;99.90;14.40;99181.00;;;;342969;28;83373;-87
2021/05/07 00:53:33;;;;;;;3.25;0.85;;;14.40;99.90;14.30;99176.00;;;;341038;28;89716;-87
2021/05/07 00:53:45;;;;;;;3.15;0.68;;;14.40;99.90;14.50;99178.00;;;;341653;28;83457;-88
2021/05/07 00:53:56;;;;;;;2.38;0.55;;;14.40;99.90;14.50;99184.00;;;;343777;28;88744;-87
2021/05/07 00:54:08;;;;;;;1.55;0.60;;;14.40;99.90;14.50;99178.00;;;;344382;28;84392;-87
2021/05/07 00:54:19;;;;;;;1.35;0.60;;;14.30;99.90;14.30;99178.00;;;;341099;28;92821;-87
2021/05/07 00:54:33;;;;;;;1.27;0.60;;;14.30;99.90;14.40;99177.00;;;;341468;28;84911;-87